x

Fred Howard Park, Fl (fhpf1) Weather Station

12:54am - Mon 15th Oct 2018 All times are EDT. -4 hours from GMT.

  • Wind
    8mph, 10mph gusts
  • Air Temp 80°f
  • Sea Pressure 1018.7mb
  • Fred Howard Park, Fl
  • Fred Howard Park, Fl

More Historic Weather Station data

Upgrade to MSW Pro to gain access to the past 30 days of data for over 8000 Wavebouys and Weather Stations around the globe.

Join

Comparision Forecast

View Surf forecast
   
Mon 10/15 12:54am 8 10 mph 1018.7mb 80f
12:48am 9 10 mph 1018.7mb 80f
Sun 10/14 11:54pm 9 13 mph 1019mb 81f
11:48pm 10 14 mph 1018.9mb 82f
10:54pm 11 16 mph 1018.9mb 82f
10:48pm 11 14 mph 1018.8mb 82f
9:54pm 11 15 mph 1018.4mb 83f
9:48pm 10 13 mph 1018.3mb 83f
8:54pm 8 9 mph 1017.7mb 83f
8:48pm 9 11 mph 1017.6mb 83f
7:54pm 9 10 mph 1016.9mb 83f
7:48pm 9 10 mph 1016.9mb 83f
6:54pm 9 10 mph 1016.5mb 83f
6:48pm 9 9 mph 1016.5mb 83f
4:54pm 8 9 mph 1016.5mb 83f
4:48pm 8 9 mph 1016.4mb 83f
3:54pm 10 10 mph 1016.4mb 83f
3:48pm 9 9 mph 1016.4mb 83f
2:54pm 10 13 mph 1016.2mb 84f
2:48pm 9 11 mph 1016.2mb 84f
1:54pm 6 7 mph 1016.6mb 85f
1:48pm 6 7 mph 1016.7mb 85f
12:54pm 8 10 mph 1017.1mb 84f
12:48pm 9 13 mph 1017.1mb 83f
11:54am 9 14 mph 1017.6mb 83f
11:48am 10 11 mph 1017.6mb 83f
10:54am 13 15 mph 1017.2mb 82f
10:48am 14 17 mph 1017.2mb 81f
8:54am 11 15 mph 1016.9mb 76f
8:48am 11 13 mph 1016.8mb 76f
7:54am 9 11 mph 1016.7mb 73f
7:48am 10 11 mph 1016.6mb 72f
6:54am 9 11 mph 1016.5mb 72f
6:48am 9 11 mph 1016.4mb 72f
4:54am 11 14 mph 1015.7mb 72f
4:48am 11 13 mph 1015.8mb 72f
2:54am 9 11 mph 1016.1mb 73f
2:48am 8 10 mph 1016mb 73f
1:54am 9 11 mph 1016mb 74f
1:48am 9 11 mph 1016mb 74f
12:54am 8 9 mph 1015.9mb 74f
12:48am 8 10 mph 1016mb 74f
Sat 10/13 11:54pm 9 11 mph 1016mb 75f
11:48pm 10 11 mph 1015.9mb 75f
10:54pm 8 9 mph 1015.7mb 76f
10:48pm 8 10 mph 1015.6mb 76f
9:54pm 7 8 mph 1014.7mb 77f
9:48pm 7 8 mph 1014.6mb 77f
8:54pm 6 8 mph 1013.9mb 79f
8:48pm 6 8 mph 1014mb 79f
7:54pm 10 13 mph 1013.3mb 79f
7:48pm 9 11 mph 1013.3mb 79f
6:54pm 10 13 mph 1012.9mb 80f
6:48pm 10 13 mph 1012.9mb 80f
5:54pm 11 13 mph 1012.7mb 80f
5:48pm 11 13 mph 1012.7mb 80f
3:54pm 15 17 mph 1012.9mb 80f
3:48pm 14 16 mph 1013mb 80f
2:54pm 14 15 mph 1013.5mb 80f
2:48pm 14 15 mph 1013.5mb 80f
1:54pm 13 14 mph 1014.2mb 80f
1:48pm 13 14 mph 1014.3mb 80f
12:54pm 10 11 mph 1014.7mb 79f
12:48pm 10 11 mph 1014.8mb 79f
11:54am 10 11 mph 1015mb 78f
11:48am 10 11 mph 1015.2mb 78f
10:54am 8 11 mph 1015mb 77f
10:48am 7 10 mph 1014.9mb 77f
9:54am 8 9 mph 1014.8mb 74f
9:48am 7 9 mph 1014.8mb 74f
7:54am 9 10 mph 1013.9mb 70f
7:48am 8 10 mph 1013.9mb 70f
6:54am 7 9 mph 1013.6mb 70f
6:48am 6 8 mph 1013.6mb 70f
4:54am 9 10 mph 1012.5mb 71f
4:48am 9 11 mph 1012.4mb 70f
3:54am 8 9 mph 1012.2mb 70f
3:48am 8 9 mph 1012.2mb 71f
2:54am 7 8 mph 1012.4mb 73f
2:48am 8 9 mph 1012.3mb 73f
1:54am 10 14 mph 1012mb 78f
1:48am 10 14 mph 1012mb 78f
12:54am 10 13 mph 1012.2mb 78f
12:48am 10 14 mph 1012.2mb 78f
Fri 10/12 11:54pm 11 14 mph 1012.5mb 78f
11:48pm 13 15 mph 1012.5mb 78f
10:54pm 11 15 mph 1012.5mb 78f
10:48pm 10 13 mph 1012.6mb 77f
9:54pm 11 13 mph 1012.5mb 77f
9:48pm 9 11 mph 1012.5mb 77f
8:54pm 10 13 mph 1011.9mb 77f
8:48pm 11 14 mph 1011.8mb 77f
6:54pm 14 17 mph 1010.9mb 78f
6:48pm 14 16 mph 1010.9mb 78f
5:54pm 14 16 mph 1010.8mb 79f
5:48pm 14 16 mph 1010.8mb 79f
4:54pm 13 14 mph 1011mb 79f
4:48pm 14 17 mph 1011mb 80f
3:54pm 10 11 mph 1011.2mb 80f
3:48pm 10 11 mph 1011.1mb 80f
2:54pm 9 11 mph 1011.6mb 80f
2:48pm 9 10 mph 1011.7mb 80f
1:54pm 11 13 mph 1012.2mb 80f
1:48pm 13 14 mph 1012.2mb 80f
12:54pm 10 13 mph 1012.6mb 79f
12:48pm 10 11 mph 1012.6mb 79f
10:54am 8 9 mph 1012.7mb 78f
10:48am 9 10 mph 1012.7mb 78f
9:54am 11 14 mph 1012.8mb 77f
9:48am 13 15 mph 1012.7mb 77f
7:54am 6 8 mph 1012.1mb 80f
7:48am 7 9 mph 1012.2mb 80f
6:54am 8 9 mph 1012mb 79f
6:48am 8 10 mph 1012mb 79f